Atria — FICZ — position and weather

sailwx.info

Track history (hours):
 
Tides and Currents Weather Stations Pressure Air Temp Water Temp Dewpoint Dewpoint Depression Visibility Wind Speed Wind Dir Waves Ship Positions

Atria

Last reported at 2017-Sep-24 17:30 UTC. Time now 2017-Sep-24 17:52 UTC.
Position N 29°44' W 012°24'.

Length 184 m; draft 7.1 m.

Type: Tanker. MMSI: 226099000.

Date/timePositionNaut miles runAvg speedWind from/ knotsBaromVisibWave heightAir tempDewpointWater temp
2017-Sep-24 17:30N 29°44' W 012°24'612.8
2017-Sep-24 17:00N 29°38' W 012°28'713.0
2017-Sep-24 16:29N 29°33' W 012°32'612.9
2017-Sep-24 15:59N 29°27' W 012°36'612.8
2017-Sep-24 15:31N 29°22' W 012°39'612.7
2017-Sep-24 15:00N 29°16' W 012°43'612.6
2017-Sep-24 14:31N 29°11' W 012°47'612.4
2017-Sep-24 14:00N 29°05' W 012°50'612.6
2017-Sep-24 13:30N 28°60' W 012°54'612.6
2017-Sep-24 13:00N 28°54' W 012°57'612.5
2017-Sep-24 12:31N 28°49' W 013°01'612.7
2017-Sep-24 12:01N 28°44' W 013°04'713.1
2017-Sep-24 11:31N 28°38' W 013°08'612.9
2017-Sep-24 11:01N 28°32' W 013°12'612.7
2017-Sep-24 10:30N 28°27' W 013°15'813.0
2017-Sep-24 09:54N 28°20' W 013°20'512.9
2017-Sep-24 09:30N 28°16' W 013°23'713.2
2017-Sep-24 09:00N 28°10' W 013°27'713.8
2017-Sep-24 08:30N 28°05' W 013°32'713.7
2017-Sep-24 08:00N 27°60' W 013°37'713.5
2017-Sep-24 07:30N 27°55' W 013°43'612.5
2017-Sep-24 07:00N 27°51' W 013°48'612.4
2017-Sep-24 06:30N 27°46' W 013°53'612.3
2017-Sep-24 06:00N 27°42' W 013°58'612.5
2017-Sep-24 05:30N 27°38' W 014°03'712.6
2017-Sep-24 04:59N 27°33' W 014°08'612.4
2017-Sep-24 04:30N 27°29' W 014°13'712.5
2017-Sep-24 03:56N 27°24' W 014°18'512.3
2017-Sep-24 03:30N 27°20' W 014°23'2512.2
2017-Sep-24 01:28N 27°03' W 014°43'612.2
2017-Sep-24 01:00N 26°59' W 014°47'  
2017-Sep-15 09:23N 26°41' W 015°46'511.8
2017-Sep-15 08:59N 26°45' W 015°44'811.7
2017-Sep-15 08:16N 26°53' W 015°39'511.9
2017-Sep-15 07:52N 26°57' W 015°37'612.0
2017-Sep-15 07:23N 27°02' W 015°34'512.0
2017-Sep-15 06:59N 27°06' W 015°32'912.2
2017-Sep-15 06:16N 27°14' W 015°27'712.6
2017-Sep-15 05:41N 27°21' W 015°23'2013.1
2017-Sep-15 04:11N 27°38' W 015°14'213.4
2017-Sep-15 04:00N 27°41' W 015°12'713.5
2017-Sep-15 03:30N 27°47' W 015°09'713.1
2017-Sep-15 03:00N 27°53' W 015°06'713.1
2017-Sep-15 02:30N 27°59' W 015°03'713.2
2017-Sep-15 02:00N 28°05' W 015°01'612.9
2017-Sep-15 01:30N 28°11' W 014°58'612.8
2017-Sep-15 01:00N 28°17' W 014°56'612.8
2017-Sep-15 00:30N 28°23' W 014°53'613.0
2017-Sep-15 00:00N 28°28' W 014°49'713.2
2017-Sep-14 23:30N 28°33' W 014°44'713.2
2017-Sep-14 23:00N 28°39' W 014°40'612.9
2017-Sep-14 22:30N 28°44' W 014°35'612.8
2017-Sep-14 22:00N 28°49' W 014°31'612.7
2017-Sep-14 21:30N 28°54' W 014°27'612.8
2017-Sep-14 21:00N 28°59' W 014°23'612.7
2017-Sep-14 20:30N 29°05' W 014°18'612.5
2017-Sep-14 20:00N 29°10' W 014°14'612.1
2017-Sep-14 19:30N 29°15' W 014°10'612.6
2017-Sep-14 19:00N 29°20' W 014°06'612.7
2017-Sep-14 18:30N 29°25' W 014°01'612.7
2017-Sep-14 18:00N 29°30' W 013°57'612.7
2017-Sep-14 17:30N 29°35' W 013°53'  
Track history (hours):
 
Tides and Currents Weather Stations Pressure Air Temp Water Temp Dewpoint Dewpoint Depression Visibility Wind Speed Wind Dir Waves Ship Positions

Atria

Last reported at 2017-Sep-24 17:30 UTC. Time now 2017-Sep-24 17:52 UTC.
Position N 29°44' W 012°24'.

Length 184 m; draft 7.1 m.

Type: Tanker. MMSI: 226099000.

Date/timePositionNaut miles runAvg speedWind from/ knotsBaromVisibWave heightAir tempDewpointWater temp
2017-Sep-24 17:30N 29°44' W 012°24'612.8
2017-Sep-24 17:00N 29°38' W 012°28'713.0
2017-Sep-24 16:29N 29°33' W 012°32'612.9
2017-Sep-24 15:59N 29°27' W 012°36'612.8
2017-Sep-24 15:31N 29°22' W 012°39'612.7
2017-Sep-24 15:00N 29°16' W 012°43'612.6
2017-Sep-24 14:31N 29°11' W 012°47'612.4
2017-Sep-24 14:00N 29°05' W 012°50'612.6
2017-Sep-24 13:30N 28°60' W 012°54'612.6
2017-Sep-24 13:00N 28°54' W 012°57'612.5
2017-Sep-24 12:31N 28°49' W 013°01'612.7
2017-Sep-24 12:01N 28°44' W 013°04'713.1
2017-Sep-24 11:31N 28°38' W 013°08'612.9
2017-Sep-24 11:01N 28°32' W 013°12'612.7
2017-Sep-24 10:30N 28°27' W 013°15'813.0
2017-Sep-24 09:54N 28°20' W 013°20'512.9
2017-Sep-24 09:30N 28°16' W 013°23'713.2
2017-Sep-24 09:00N 28°10' W 013°27'713.8
2017-Sep-24 08:30N 28°05' W 013°32'713.7
2017-Sep-24 08:00N 27°60' W 013°37'713.5
2017-Sep-24 07:30N 27°55' W 013°43'612.5
2017-Sep-24 07:00N 27°51' W 013°48'612.4
2017-Sep-24 06:30N 27°46' W 013°53'612.3
2017-Sep-24 06:00N 27°42' W 013°58'612.5
2017-Sep-24 05:30N 27°38' W 014°03'712.6
2017-Sep-24 04:59N 27°33' W 014°08'612.4
2017-Sep-24 04:30N 27°29' W 014°13'712.5
2017-Sep-24 03:56N 27°24' W 014°18'512.3
2017-Sep-24 03:30N 27°20' W 014°23'2512.2
2017-Sep-24 01:28N 27°03' W 014°43'612.2
2017-Sep-24 01:00N 26°59' W 014°47'  
2017-Sep-15 09:23N 26°41' W 015°46'511.8
2017-Sep-15 08:59N 26°45' W 015°44'811.7
2017-Sep-15 08:16N 26°53' W 015°39'511.9
2017-Sep-15 07:52N 26°57' W 015°37'612.0
2017-Sep-15 07:23N 27°02' W 015°34'512.0
2017-Sep-15 06:59N 27°06' W 015°32'912.2
2017-Sep-15 06:16N 27°14' W 015°27'712.6
2017-Sep-15 05:41N 27°21' W 015°23'2013.1
2017-Sep-15 04:11N 27°38' W 015°14'213.4
2017-Sep-15 04:00N 27°41' W 015°12'713.5
2017-Sep-15 03:30N 27°47' W 015°09'713.1
2017-Sep-15 03:00N 27°53' W 015°06'713.1
2017-Sep-15 02:30N 27°59' W 015°03'713.2
2017-Sep-15 02:00N 28°05' W 015°01'612.9
2017-Sep-15 01:30N 28°11' W 014°58'612.8
2017-Sep-15 01:00N 28°17' W 014°56'612.8
2017-Sep-15 00:30N 28°23' W 014°53'613.0
2017-Sep-15 00:00N 28°28' W 014°49'713.2
2017-Sep-14 23:30N 28°33' W 014°44'713.2
2017-Sep-14 23:00N 28°39' W 014°40'612.9
2017-Sep-14 22:30N 28°44' W 014°35'612.8
2017-Sep-14 22:00N 28°49' W 014°31'612.7
2017-Sep-14 21:30N 28°54' W 014°27'612.8
2017-Sep-14 21:00N 28°59' W 014°23'612.7
2017-Sep-14 20:30N 29°05' W 014°18'612.5
2017-Sep-14 20:00N 29°10' W 014°14'612.1
2017-Sep-14 19:30N 29°15' W 014°10'612.6
2017-Sep-14 19:00N 29°20' W 014°06'612.7
2017-Sep-14 18:30N 29°25' W 014°01'612.7
2017-Sep-14 18:00N 29°30' W 013°57'612.7
2017-Sep-14 17:30N 29°35' W 013°53'  

Dump ship's entire track history